createdAt,value
2022-10-01T00:04:36.884Z,12.39
2022-10-01T00:09:39.057Z,12.61
2022-10-01T00:14:41.236Z,12.50
2022-10-01T00:19:43.411Z,12.47
2022-10-01T00:24:47.430Z,12.14
2022-10-01T00:29:49.587Z,11.98
2022-10-01T00:34:52.288Z,12.21
2022-10-01T00:39:54.622Z,12.47
2022-10-01T00:44:56.746Z,12.24
2022-10-01T00:50:18.063Z,12.31
2022-10-01T00:55:31.087Z,12.20
2022-10-01T01:00:33.344Z,12.25
2022-10-01T01:05:35.731Z,12.19
2022-10-01T01:10:49.555Z,11.93
2022-10-01T01:15:55.579Z,12.42
2022-10-01T01:21:17.176Z,11.64
2022-10-01T01:26:33.459Z,12.41
2022-10-01T01:31:42.211Z,12.15
2022-10-01T01:36:47.546Z,12.40
2022-10-01T01:41:53.570Z,12.31
2022-10-01T01:46:59.076Z,12.19
2022-10-01T01:52:09.015Z,12.19
2022-10-01T01:57:13.364Z,12.34
2022-10-01T02:02:22.995Z,12.13
2022-10-01T02:07:42.502Z,12.36
2022-10-01T02:13:04.094Z,12.31
2022-10-01T02:18:17.355Z,12.19
2022-10-01T02:23:25.871Z,12.28
2022-10-01T02:28:29.045Z,12.13
2022-10-01T02:33:33.681Z,11.42
2022-10-01T02:38:38.051Z,12.16
2022-10-01T02:43:51.578Z,12.16
2022-10-01T02:48:53.734Z,12.12
2022-10-01T02:54:02.100Z,12.20
2022-10-01T02:59:07.662Z,12.18
2022-10-01T03:04:09.834Z,11.93
2022-10-01T03:09:12.342Z,11.60
2022-10-01T03:14:14.508Z,12.00
2022-10-01T03:19:16.894Z,11.82
2022-10-01T03:24:19.008Z,11.91
2022-10-01T03:29:21.124Z,11.85
2022-10-01T03:34:23.327Z,12.00
2022-10-01T03:39:25.597Z,11.77
2022-10-01T03:44:28.649Z,11.89
2022-10-01T03:49:30.804Z,12.06
2022-10-01T03:54:33.264Z,11.62
2022-10-01T03:59:36.357Z,12.03
2022-10-01T04:04:38.513Z,11.91
2022-10-01T04:09:40.639Z,11.84
2022-10-01T04:14:42.795Z,12.07
2022-10-01T04:19:44.904Z,12.06
2022-10-01T04:24:47.035Z,12.04
2022-10-01T04:29:49.214Z,11.93
2022-10-01T04:34:54.156Z,11.73
2022-10-01T04:39:56.583Z,11.90
2022-10-01T04:44:58.840Z,11.83
2022-10-01T04:50:01.017Z,11.84
2022-10-01T04:55:03.263Z,11.84
2022-10-01T05:00:07.671Z,11.93
2022-10-01T05:05:10.028Z,11.91
2022-10-01T05:10:14.644Z,11.87
2022-10-01T05:15:17.270Z,11.59
2022-10-01T05:20:21.759Z,12.03
2022-10-01T05:25:24.152Z,11.78
2022-10-01T05:30:26.280Z,11.80
2022-10-01T05:35:29.068Z,12.05
2022-10-01T05:40:31.384Z,11.74
2022-10-01T05:45:33.809Z,11.76
2022-10-01T05:50:40.423Z,11.60
2022-10-01T05:55:43.191Z,11.59
2022-10-01T06:00:45.383Z,11.73
2022-10-01T06:05:47.586Z,11.81
2022-10-01T06:10:50.126Z,11.78
2022-10-01T06:15:53.282Z,11.94
2022-10-01T06:20:55.579Z,11.91
2022-10-01T06:25:59.901Z,12.03
2022-10-01T06:31:03.285Z,12.13
2022-10-01T06:36:05.695Z,11.97
2022-10-01T06:41:08.538Z,12.12
2022-10-01T06:46:11.399Z,11.84
2022-10-01T06:51:13.785Z,11.88
2022-10-01T06:56:16.068Z,12.08
2022-10-01T07:01:21.178Z,11.88
2022-10-01T07:06:23.396Z,11.79
2022-10-01T07:11:27.430Z,11.45
2022-10-01T07:16:29.691Z,12.03
2022-10-01T07:21:32.224Z,11.64
2022-10-01T07:26:34.682Z,11.91
2022-10-01T07:31:39.289Z,12.00
2022-10-01T07:36:42.963Z,11.68
2022-10-01T07:41:45.185Z,11.84
2022-10-01T07:46:48.649Z,12.17
2022-10-01T07:51:51.614Z,12.14
2022-10-01T07:56:56.029Z,11.97
2022-10-01T08:01:58.760Z,12.10
2022-10-01T08:07:00.934Z,12.24
2022-10-01T08:12:03.372Z,12.13
2022-10-01T08:17:07.838Z,12.12
2022-10-01T08:22:10.151Z,12.10
2022-10-01T08:27:12.412Z,12.30
2022-10-01T08:32:14.913Z,12.31
2022-10-01T08:37:19.955Z,12.28
2022-10-01T08:42:48.885Z,12.53
2022-10-01T08:48:04.163Z,11.76
2022-10-01T08:53:15.802Z,12.55
2022-10-01T08:58:28.598Z,12.75
2022-10-01T09:03:32.118Z,12.71
2022-10-01T09:09:06.525Z,12.85
2022-10-01T09:14:27.213Z,12.45
2022-10-01T09:19:57.520Z,11.88
2022-10-01T09:25:21.843Z,13.15
2022-10-01T09:30:27.360Z,12.61
2022-10-01T09:35:46.231Z,13.23
2022-10-01T09:40:58.887Z,13.17
2022-10-01T09:46:04.948Z,13.30
2022-10-01T09:51:28.625Z,13.37
2022-10-01T09:56:39.646Z,13.23
2022-10-01T10:01:48.295Z,13.34
2022-10-01T10:06:51.925Z,13.40
2022-10-01T10:11:56.730Z,13.22
2022-10-01T10:17:06.157Z,13.23
2022-10-01T10:22:25.137Z,13.15
2022-10-01T10:27:30.102Z,13.49
2022-10-01T10:32:32.393Z,13.43
2022-10-01T10:37:42.987Z,13.07
2022-10-01T10:42:50.954Z,12.76
2022-10-01T10:47:57.985Z,13.45
2022-10-01T10:53:00.211Z,13.02
2022-10-01T10:58:15.343Z,13.50
2022-10-01T11:03:21.605Z,13.39
2022-10-01T11:08:27.928Z,13.43
2022-10-01T11:13:55.052Z,13.62
2022-10-01T11:19:03.236Z,13.55
2022-10-01T11:24:14.618Z,13.41
2022-10-01T11:29:26.700Z,13.44
2022-10-01T11:34:42.204Z,13.68
2022-10-01T11:39:47.910Z,13.42
2022-10-01T11:45:00.537Z,13.44
2022-10-01T11:50:05.981Z,13.13
2022-10-01T11:55:49.210Z,13.73
2022-10-01T12:01:06.098Z,13.72
2022-10-01T12:06:14.919Z,13.01
2022-10-01T12:11:22.328Z,13.67
2022-10-01T12:16:46.416Z,13.63
2022-10-01T12:22:11.055Z,13.90
2022-10-01T12:27:44.848Z,13.90
2022-10-01T12:32:53.324Z,13.87
2022-10-01T12:38:31.048Z,13.98
2022-10-01T12:44:06.800Z,13.43
2022-10-01T12:49:38.448Z,13.98
2022-10-01T12:54:43.753Z,14.09
2022-10-01T13:00:05.278Z,13.76
2022-10-01T13:05:38.132Z,14.17
2022-10-01T13:10:49.435Z,14.13
2022-10-01T13:16:20.995Z,13.80
2022-10-01T13:21:50.954Z,14.18
2022-10-01T13:26:56.199Z,14.11
2022-10-01T13:32:00.512Z,13.60
2022-10-01T13:37:21.588Z,13.63
2022-10-01T13:42:27.344Z,13.86
2022-10-01T13:47:29.638Z,13.27
2022-10-01T13:52:33.099Z,14.08
2022-10-01T13:57:37.456Z,13.79
2022-10-01T14:02:43.137Z,13.62
2022-10-01T14:07:46.921Z,13.96
2022-10-01T14:13:07.632Z,13.57
2022-10-01T14:18:16.824Z,14.07
2022-10-01T14:23:21.168Z,14.19
2022-10-01T14:28:23.934Z,14.03
2022-10-01T14:33:40.675Z,13.71
2022-10-01T14:38:42.943Z,13.73
2022-10-01T14:43:45.225Z,13.95
2022-10-01T14:48:57.990Z,13.82
2022-10-01T14:54:00.791Z,13.46
2022-10-01T14:59:05.674Z,13.32
2022-10-01T15:04:15.465Z,13.74
2022-10-01T15:09:19.356Z,13.90
2022-10-01T15:14:24.175Z,13.63
2022-10-01T15:19:26.446Z,13.63
2022-10-01T15:24:42.121Z,13.89
2022-10-01T15:29:44.670Z,13.66
2022-10-01T15:34:55.717Z,13.80
2022-10-01T15:39:59.012Z,13.60
2022-10-01T15:45:07.398Z,13.74
2022-10-01T15:50:12.636Z,13.70
2022-10-01T15:55:36.596Z,13.49
2022-10-01T16:00:43.879Z,13.63
2022-10-01T16:05:47.803Z,13.47
2022-10-01T16:11:12.998Z,13.67
2022-10-01T16:16:41.471Z,13.56
2022-10-01T16:21:43.826Z,13.38
2022-10-01T16:26:47.739Z,12.89
2022-10-01T16:31:50.367Z,13.20
2022-10-01T16:36:52.608Z,13.43
2022-10-01T16:42:19.197Z,12.91
2022-10-01T16:47:17.862Z,13.08
2022-10-01T16:52:20.120Z,13.30
2022-10-01T16:57:22.347Z,13.37
2022-10-01T17:02:24.598Z,13.10
2022-10-01T17:07:27.012Z,13.44
2022-10-01T17:12:30.317Z,13.39
2022-10-01T17:17:32.735Z,13.33
2022-10-01T17:22:35.361Z,13.22
2022-10-01T17:27:37.713Z,13.13
2022-10-01T17:32:40.591Z,13.32
2022-10-01T17:37:45.876Z,13.23
2022-10-01T17:42:48.309Z,13.38
2022-10-01T17:47:54.232Z,13.40
2022-10-01T17:52:56.550Z,13.25
2022-10-01T17:58:04.004Z,13.37
2022-10-01T18:03:09.138Z,13.04
2022-10-01T18:08:11.606Z,13.44
2022-10-01T18:13:20.353Z,13.13
2022-10-01T18:19:51.308Z,13.45
2022-10-01T18:23:48.051Z,13.33
2022-10-01T18:28:52.849Z,13.45
2022-10-01T18:33:59.409Z,13.45
2022-10-01T18:39:32.909Z,13.49
2022-10-01T18:44:36.470Z,13.32
2022-10-01T18:50:31.121Z,13.58
2022-10-01T18:55:40.561Z,13.39
2022-10-01T19:01:18.442Z,13.62
2022-10-01T19:06:41.485Z,13.65
2022-10-01T19:12:13.202Z,13.51
2022-10-01T19:17:27.023Z,13.52
2022-10-01T19:23:07.207Z,13.73
2022-10-01T19:28:29.436Z,13.71
2022-10-01T19:33:36.510Z,13.55
2022-10-01T19:38:41.258Z,13.54
2022-10-01T19:44:18.942Z,13.69
2022-10-01T19:49:34.575Z,13.53
2022-10-01T19:54:42.443Z,13.51
2022-10-01T19:59:44.886Z,13.32
2022-10-01T20:04:56.827Z,13.45
2022-10-01T20:10:07.597Z,13.57
2022-10-01T20:15:23.535Z,13.51
2022-10-01T20:20:34.316Z,13.40
2022-10-01T20:26:01.650Z,13.73
2022-10-01T20:31:22.784Z,13.33
2022-10-01T20:37:09.360Z,13.75
2022-10-01T20:42:23.748Z,13.66
2022-10-01T20:47:34.023Z,13.35
2022-10-01T20:53:11.345Z,13.60
2022-10-01T20:58:29.600Z,13.55
2022-10-01T21:03:35.037Z,13.61
2022-10-01T21:08:53.819Z,13.52
2022-10-01T21:14:03.517Z,13.52
2022-10-01T21:19:32.953Z,12.84
2022-10-01T21:24:54.316Z,13.66
2022-10-01T21:30:09.468Z,13.60
2022-10-01T21:35:22.502Z,13.14
2022-10-01T21:40:25.153Z,13.58
2022-10-01T21:45:42.201Z,13.55
2022-10-01T21:50:51.935Z,13.59
2022-10-01T21:56:15.966Z,13.67
2022-10-01T22:01:27.382Z,13.62
2022-10-01T22:06:45.275Z,13.53
2022-10-01T22:11:50.975Z,13.42
2022-10-01T22:16:53.182Z,13.57
2022-10-01T22:22:21.259Z,13.62
2022-10-01T22:27:58.124Z,13.64
2022-10-01T22:33:40.804Z,13.58
2022-10-01T22:38:47.548Z,13.14
2022-10-01T22:43:50.303Z,13.37
2022-10-01T22:49:11.811Z,13.34
2022-10-01T22:54:13.949Z,13.44
2022-10-01T22:59:36.369Z,13.48
2022-10-01T23:05:09.955Z,13.44
2022-10-01T23:10:34.006Z,13.32
2022-10-01T23:15:46.643Z,13.21
2022-10-01T23:21:10.082Z,13.20
2022-10-01T23:26:36.522Z,12.94
2022-10-01T23:31:57.556Z,12.91
2022-10-01T23:37:07.748Z,13.01
2022-10-01T23:42:35.569Z,12.61
2022-10-01T23:48:24.289Z,12.81
2022-10-01T23:53:52.510Z,12.77
2022-10-01T23:59:23.214Z,12.71
